Millington, TN

11:57 AM CDT on April 01, 2015 (GMT -0500)
Lucy | | Change Station
CLOSE
Current Station
Personal Weather Station
Location: Millington, TN
Elevation: 276 ft
Nearby Weather Stations
Active Advisory: Flood Advisory Active Notice: Local Storm Report

Elev 276 ft 35.31 °N, 89.93 °W | Updated 9 minutes ago

Overcast
Overcast
74.5 °F
Feels Like 77 °F
N
1.6
Wind Variable Wind from East
Gusts 3.8 mph

Today
High -- | Low -- °F
--% Chance of Precip.
Yesterday
High -- | Low -- °F
Precip. -- in
6:46 AM 7:20 PM
Waxing Gibbous, 93% visible
Pressure 30.03 in
Visibility 10.0 miles
Clouds Overcast 2600 ft
Heat Index 77 °F
Dew Point 57 °F
Humidity 55%
Rainfall 0.22 in
Snow Depth Not available.
UV 3 out of 12
Pollen 10.20 out of 12
Air Quality Not available.
Flu Activity Not available.
METAR KNQA 011650Z 13006KT 10SM OVC026 23/16 A3003

More Conditions Fewer Conditions

Pressure 30.03 in
Visibility 10.0 miles
Clouds Overcast 2600 ft
Heat Index 77 °F
Dew Point 57 °F
Humidity 55%
Rainfall 0.22 in
Snow Depth Not available.
UV 3 out of 12
Pollen 10.20 out of 12
Air Quality Not available.
Flu Activity Not available.
METAR KNQA 011650Z 13006KT 10SM OVC026 23/16 A3003

More Conditions Fewer Conditions

10-Day Weather Forecast

Almanac

Astronomy

Apr. 01, 2015 Rise Set
Actual Time
Civil Twilight
Nautical Twilight
Astronomical Twilight
Moon
Length of Visible Light
Length of Day
Tomorrow will be .
, % of the Moon is Illuminated

Today's Extremes

State Highs State Lows

Community

WunderPhotos

Upload Photos

1,810,005 photos uploaded!

WunderBlogs® & News

Nearby

Air Quality

  Air Quality AQ Index Pollutant
Not available.

Snow Depth

Station Depth Elevation

Earthquake Activity

City Distance Mag. Time & Date
Minimum magnitude displayed is 2.5.

Coastal Water Temperatures

Place Temperature

Stations

Nearby Weather Stations

Station Location Temp. Windchill Dew Point Humidity Wind Precip. Elev Updated Type
                   
Flood Advisory
Statement as of 11:39 AM CDT on April 01, 2015

The Flood Advisory is extended for
the Mississippi River at Memphis
* until Thursday April 02.
* At 11 am Wednesday the stage was 28.4 feet.
* Flood stage is 34.0 feet.
* Forecast... the river will fall to near 28.1 feet Wednesday April
01.
* At 28.0 feet... in Arkansas, Dacus Lake Road under the I-55 bridge
begins to flood. Water is encroaching on the levee south of Blue
Lake. The Road to island 40 begins to flood.


Lat... Lon 3539 9025 3539 8995 3533 9005 3513 9004
      3491 9008 3491 9041